sensor_id;sensor_type;location;lat;lon;timestamp;pressure;altitude;pressure_sealevel;temperature;humidity
6144;BME280;3103;49.492;8.474;2022-12-29T00:02:22;99926.72;;;11.06;68.82
6144;BME280;3103;49.492;8.474;2022-12-29T00:04:49;99925.06;;;11.00;69.85
6144;BME280;3103;49.492;8.474;2022-12-29T00:07:17;99920.84;;;11.09;69.84
6144;BME280;3103;49.492;8.474;2022-12-29T00:09:44;99920.53;;;11.06;70.32
6144;BME280;3103;49.492;8.474;2022-12-29T00:12:11;99920.34;;;11.12;70.92
6144;BME280;3103;49.492;8.474;2022-12-29T00:14:38;99910.19;;;11.19;71.24
6144;BME280;3103;49.492;8.474;2022-12-29T00:17:23;99906.69;;;11.19;71.44
6144;BME280;3103;49.492;8.474;2022-12-29T00:19:50;99923.09;;;11.22;71.42
6144;BME280;3103;49.492;8.474;2022-12-29T00:22:35;99920.69;;;11.21;71.63
6144;BME280;3103;49.492;8.474;2022-12-29T00:25:20;99917.19;;;11.20;71.78
6144;BME280;3103;49.492;8.474;2022-12-29T00:28:08;99913.16;;;11.23;73.17
6144;BME280;3103;49.492;8.474;2022-12-29T00:31:11;99911.84;;;11.25;73.39
6144;BME280;3103;49.492;8.474;2022-12-29T00:33:58;99908.09;;;11.26;73.63
6144;BME280;3103;49.492;8.474;2022-12-29T00:36:44;99905.16;;;11.28;74.48
6144;BME280;3103;49.492;8.474;2022-12-29T00:39:16;99914.63;;;11.36;74.57
6144;BME280;3103;49.492;8.474;2022-12-29T00:42:07;99907.66;;;11.40;74.81
6144;BME280;3103;49.492;8.474;2022-12-29T00:44:46;99905.53;;;11.42;74.59
6144;BME280;3103;49.492;8.474;2022-12-29T00:47:13;99910.72;;;11.21;75.34
6144;BME280;3103;49.492;8.474;2022-12-29T00:49:40;99904.84;;;11.24;74.90
6144;BME280;3103;49.492;8.474;2022-12-29T00:52:08;99904.94;;;11.35;74.23
6144;BME280;3103;49.492;8.474;2022-12-29T00:54:38;99910.41;;;11.45;73.66
6144;BME280;3103;49.492;8.474;2022-12-29T00:57:06;99908.41;;;11.30;74.00
6144;BME280;3103;49.492;8.474;2022-12-29T00:59:41;99903.84;;;11.36;73.33
6144;BME280;3103;49.492;8.474;2022-12-29T01:02:09;99907.66;;;11.40;73.14
6144;BME280;3103;49.492;8.474;2022-12-29T01:04:36;99903.75;;;11.25;72.92
6144;BME280;3103;49.492;8.474;2022-12-29T01:07:03;99914.34;;;11.37;72.05
6144;BME280;3103;49.492;8.474;2022-12-29T01:09:31;99915.41;;;11.31;71.37
6144;BME280;3103;49.492;8.474;2022-12-29T01:12:16;99903.28;;;11.28;71.16
6144;BME280;3103;49.492;8.474;2022-12-29T01:14:43;99904.34;;;11.27;71.30
6144;BME280;3103;49.492;8.474;2022-12-29T01:17:10;99910.31;;;11.35;70.99
6144;BME280;3103;49.492;8.474;2022-12-29T01:19:38;99893.63;;;11.33;72.07
6144;BME280;3103;49.492;8.474;2022-12-29T01:22:04;99897.34;;;11.26;72.50
6144;BME280;3103;49.492;8.474;2022-12-29T01:24:31;99901.47;;;11.39;71.94
6144;BME280;3103;49.492;8.474;2022-12-29T01:26:58;99895.25;;;11.34;72.24
6144;BME280;3103;49.492;8.474;2022-12-29T01:29:24;99889.06;;;11.38;73.13
6144;BME280;3103;49.492;8.474;2022-12-29T01:31:51;99889.94;;;11.44;73.05
6144;BME280;3103;49.492;8.474;2022-12-29T01:34:18;99891.28;;;11.41;73.49
6144;BME280;3103;49.492;8.474;2022-12-29T01:36:45;99892.63;;;11.44;74.52
6144;BME280;3103;49.492;8.474;2022-12-29T01:39:12;99892.09;;;11.42;75.56
6144;BME280;3103;49.492;8.474;2022-12-29T01:41:41;99897.75;;;11.45;76.58
6144;BME280;3103;49.492;8.474;2022-12-29T01:47:22;99894.50;;;11.43;79.59
6144;BME280;3103;49.492;8.474;2022-12-29T01:49:56;99900.16;;;11.42;80.52
6144;BME280;3103;49.492;8.474;2022-12-29T01:52:26;99895.59;;;11.42;80.79
6144;BME280;3103;49.492;8.474;2022-12-29T01:54:55;99883.97;;;11.37;81.43
6144;BME280;3103;49.492;8.474;2022-12-29T01:57:28;99885.31;;;11.39;81.56
6144;BME280;3103;49.492;8.474;2022-12-29T02:00:00;99900.66;;;11.39;80.86
6144;BME280;3103;49.492;8.474;2022-12-29T02:02:38;99878.03;;;11.35;81.78
6144;BME280;3103;49.492;8.474;2022-12-29T02:05:11;99890.41;;;11.36;81.33
6144;BME280;3103;49.492;8.474;2022-12-29T02:07:41;99886.66;;;11.37;81.61
6144;BME280;3103;49.492;8.474;2022-12-29T02:10:09;99890.47;;;11.41;81.99
6144;BME280;3103;49.492;8.474;2022-12-29T02:12:36;99893.66;;;11.38;81.82
6144;BME280;3103;49.492;8.474;2022-12-29T02:15:03;99883.97;;;11.37;81.96
6144;BME280;3103;49.492;8.474;2022-12-29T02:17:53;99886.66;;;11.37;81.90
6144;BME280;3103;49.492;8.474;2022-12-29T02:20:47;99893.44;;;11.44;81.63
6144;BME280;3103;49.492;8.474;2022-12-29T02:23:30;99888.88;;;11.45;81.31
6144;BME280;3103;49.492;8.474;2022-12-29T02:26:27;99889.94;;;11.44;81.15
6144;BME280;3103;49.492;8.474;2022-12-29T02:29:15;99894.00;;;11.46;81.11
6144;BME280;3103;49.492;8.474;2022-12-29T02:32:05;99888.06;;;11.44;81.47
6144;BME280;3103;49.492;8.474;2022-12-29T02:34:53;99886.47;;;11.48;81.00
6144;BME280;3103;49.492;8.474;2022-12-29T02:37:44;99882.19;;;11.52;80.93
6144;BME280;3103;49.492;8.474;2022-12-29T02:40:24;99873.56;;;11.50;80.23
6144;BME280;3103;49.492;8.474;2022-12-29T02:43:21;99871.75;;;11.56;80.25
6144;BME280;3103;49.492;8.474;2022-12-29T02:45:57;99860.41;;;11.54;79.76
6144;BME280;3103;49.492;8.474;2022-12-29T02:48:31;99858.03;;;11.57;79.58
6144;BME280;3103;49.492;8.474;2022-12-29T02:51:02;99859.09;;;11.56;79.58
6144;BME280;3103;49.492;8.474;2022-12-29T02:53:32;99872.81;;;11.55;79.18
6144;BME280;3103;49.492;8.474;2022-12-29T02:56:19;99866.31;;;11.51;80.07
6144;BME280;3103;49.492;8.474;2022-12-29T02:58:46;99864.16;;;11.53;79.60
6144;BME280;3103;49.492;8.474;2022-12-29T03:07:07;99851.75;;;11.47;80.33
6144;BME280;3103;49.492;8.474;2022-12-29T03:12:15;99838.94;;;11.59;80.01
6144;BME280;3103;49.492;8.474;2022-12-29T03:14:59;99846.66;;;11.50;79.94
6144;BME280;3103;49.492;8.474;2022-12-29T03:18:06;99836.50;;;11.57;79.93
6144;BME280;3103;49.492;8.474;2022-12-29T03:20:49;99821.66;;;11.50;80.26
6144;BME280;3103;49.492;8.474;2022-12-29T03:23:19;99808.78;;;11.57;79.71
6144;BME280;3103;49.492;8.474;2022-12-29T03:25:51;99813.84;;;11.48;79.92
6144;BME280;3103;49.492;8.474;2022-12-29T03:28:24;99810.66;;;11.56;79.61
6144;BME280;3103;49.492;8.474;2022-12-29T03:30:53;99807.66;;;11.53;79.38
6144;BME280;3103;49.492;8.474;2022-12-29T03:33:24;99814.13;;;11.52;79.83
6144;BME280;3103;49.492;8.474;2022-12-29T03:35:57;99807.38;;;11.44;80.03
6144;BME280;3103;49.492;8.474;2022-12-29T03:38:35;99812.47;;;11.41;80.45
6144;BME280;3103;49.492;8.474;2022-12-29T03:41:08;99818.66;;;11.46;80.43
6144;BME280;3103;49.492;8.474;2022-12-29T03:43:35;99817.88;;;11.51;80.30
6144;BME280;3103;49.492;8.474;2022-12-29T03:46:02;99799.28;;;11.44;79.92
6144;BME280;3103;49.492;8.474;2022-12-29T03:48:29;99796.38;;;11.51;79.43
6144;BME280;3103;49.492;8.474;2022-12-29T03:50:56;99792.56;;;11.47;79.97
6144;BME280;3103;49.492;8.474;2022-12-29T03:53:22;99788.81;;;11.48;78.97
6144;BME280;3103;49.492;8.474;2022-12-29T03:55:50;99783.16;;;11.44;79.02
6144;BME280;3103;49.492;8.474;2022-12-29T03:58:16;99773.66;;;11.26;80.00
6144;BME280;3103;49.492;8.474;2022-12-29T04:01:06;99780.75;;;11.48;78.85
6144;BME280;3103;49.492;8.474;2022-12-29T04:03:36;99776.91;;;11.39;79.11
6144;BME280;3103;49.492;8.474;2022-12-29T04:06:04;99779.13;;;11.47;78.66
6144;BME280;3103;49.492;8.474;2022-12-29T04:08:55;99778.06;;;11.48;77.36
6144;BME280;3103;49.492;8.474;2022-12-29T04:11:22;99788.28;;;11.51;77.38
6144;BME280;3103;49.492;8.474;2022-12-29T04:13:57;99783.19;;;11.49;76.92
6144;BME280;3103;49.492;8.474;2022-12-29T04:16:25;99787.22;;;11.52;76.79
6144;BME280;3103;49.492;8.474;2022-12-29T04:18:52;99783.97;;;11.50;77.27
6144;BME280;3103;49.492;8.474;2022-12-29T04:21:19;99782.34;;;11.44;77.25
6144;BME280;3103;49.492;8.474;2022-12-29T04:23:47;99788.34;;;11.56;76.86
6144;BME280;3103;49.492;8.474;2022-12-29T04:26:15;99801.78;;;11.56;76.73
6144;BME280;3103;49.492;8.474;2022-12-29T04:28:53;99801.22;;;11.54;76.66
6144;BME280;3103;49.492;8.474;2022-12-29T04:31:32;99786.94;;;11.48;76.89
6144;BME280;3103;49.492;8.474;2022-12-29T04:34:00;99787.53;;;11.55;76.57
6144;BME280;3103;49.492;8.474;2022-12-29T04:36:28;99786.72;;;11.55;76.23
6144;BME280;3103;49.492;8.474;2022-12-29T04:38:56;99789.41;;;11.55;75.97
6144;BME280;3103;49.492;8.474;2022-12-29T04:41:23;99789.66;;;11.53;75.84
6144;BME280;3103;49.492;8.474;2022-12-29T04:43:51;99787.22;;;11.52;76.61
6144;BME280;3103;49.492;8.474;2022-12-29T04:46:36;99783.44;;;11.48;76.38
6144;BME280;3103;49.492;8.474;2022-12-29T04:49:28;99789.91;;;11.52;76.00
6144;BME280;3103;49.492;8.474;2022-12-29T04:52:06;99784.25;;;11.48;76.42
6144;BME280;3103;49.492;8.474;2022-12-29T04:54:36;99775.91;;;11.45;76.34
6144;BME280;3103;49.492;8.474;2022-12-29T04:57:11;99783.44;;;11.53;75.73
6144;BME280;3103;49.492;8.474;2022-12-29T04:59:44;99791.53;;;11.53;76.10
6144;BME280;3103;49.492;8.474;2022-12-29T05:02:11;99790.44;;;11.54;75.31
6144;BME280;3103;49.492;8.474;2022-12-29T05:04:38;99792.34;;;11.53;75.20
6144;BME280;3103;49.492;8.474;2022-12-29T05:07:06;99782.66;;;11.52;75.29
6144;BME280;3103;49.492;8.474;2022-12-29T05:09:33;99786.66;;;11.50;75.27
6144;BME280;3103;49.492;8.474;2022-12-29T05:12:00;99778.59;;;11.45;74.83
6144;BME280;3103;49.492;8.474;2022-12-29T05:14:28;99779.94;;;11.47;74.94
6144;BME280;3103;49.492;8.474;2022-12-29T05:16:55;99785.59;;;11.46;75.69
6144;BME280;3103;49.492;8.474;2022-12-29T05:19:24;99785.84;;;11.44;75.37
6144;BME280;3103;49.492;8.474;2022-12-29T05:21:51;99785.88;;;11.49;75.25
6144;BME280;3103;49.492;8.474;2022-12-29T05:24:18;99797.47;;;11.55;75.34
6144;BME280;3103;49.492;8.474;2022-12-29T05:26:45;99790.91;;;11.36;75.60
6144;BME280;3103;49.492;8.474;2022-12-29T05:29:30;99794.22;;;11.53;75.18
6144;BME280;3103;49.492;8.474;2022-12-29T05:31:57;99789.88;;;11.42;75.73
6144;BME280;3103;49.492;8.474;2022-12-29T05:34:24;99791.97;;;11.35;75.98
6144;BME280;3103;49.492;8.474;2022-12-29T05:36:51;99775.56;;;11.31;76.87
6144;BME280;3103;49.492;8.474;2022-12-29T05:39:18;99788.22;;;11.36;76.01
6144;BME280;3103;49.492;8.474;2022-12-29T05:41:49;99782.31;;;11.39;75.49
6144;BME280;3103;49.492;8.474;2022-12-29T05:44:47;99784.44;;;11.37;75.65
6144;BME280;3103;49.492;8.474;2022-12-29T05:47:23;99776.84;;;11.23;75.65
6144;BME280;3103;49.492;8.474;2022-12-29T05:50:09;99792.56;;;11.42;75.93
6144;BME280;3103;49.492;8.474;2022-12-29T05:52:54;99789.91;;;11.52;74.98
6144;BME280;3103;49.492;8.474;2022-12-29T05:55:21;99792.56;;;11.47;75.97
6144;BME280;3103;49.492;8.474;2022-12-29T05:57:51;99790.16;;;11.50;75.09
6144;BME280;3103;49.492;8.474;2022-12-29T06:00:17;99782.91;;;11.46;75.91
6144;BME280;3103;49.492;8.474;2022-12-29T06:02:45;99787.19;;;11.42;75.83
6144;BME280;3103;49.492;8.474;2022-12-29T06:05:14;99779.03;;;11.26;76.97
6144;BME280;3103;49.492;8.474;2022-12-29T06:07:41;99779.31;;;11.30;76.85
6144;BME280;3103;49.492;8.474;2022-12-29T06:10:09;99776.72;;;11.45;75.90
6144;BME280;3103;49.492;8.474;2022-12-29T06:12:43;99775.97;;;11.55;76.14
6144;BME280;3103;49.492;8.474;2022-12-29T06:15:10;99775.63;;;11.46;76.50
6144;BME280;3103;49.492;8.474;2022-12-29T06:17:39;99777.25;;;11.52;76.04
6144;BME280;3103;49.492;8.474;2022-12-29T06:20:07;99767.38;;;11.63;76.03
6144;BME280;3103;49.492;8.474;2022-12-29T06:22:35;99764.00;;;11.36;76.76
6144;BME280;3103;49.492;8.474;2022-12-29T06:25:02;99777.19;;;11.37;77.12
6144;BME280;3103;49.492;8.474;2022-12-29T06:27:33;99759.69;;;11.35;77.13
6144;BME280;3103;49.492;8.474;2022-12-29T06:29:59;99780.41;;;11.34;77.40
6144;BME280;3103;49.492;8.474;2022-12-29T06:32:30;99769.47;;;11.51;76.05
6144;BME280;3103;49.492;8.474;2022-12-29T06:35:04;99775.16;;;11.59;75.77
6144;BME280;3103;49.492;8.474;2022-12-29T06:37:31;99775.44;;;11.58;75.27
6144;BME280;3103;49.492;8.474;2022-12-29T06:39:58;99775.09;;;11.49;75.48
6144;BME280;3103;49.492;8.474;2022-12-29T06:42:32;99767.03;;;11.44;75.97
6144;BME280;3103;49.492;8.474;2022-12-29T06:45:15;99767.31;;;11.53;75.53
6144;BME280;3103;49.492;8.474;2022-12-29T06:47:42;99766.81;;;11.56;74.89
6144;BME280;3103;49.492;8.474;2022-12-29T06:50:09;99769.31;;;11.73;73.65
6144;BME280;3103;49.492;8.474;2022-12-29T06:52:36;99772.53;;;11.75;73.28
6144;BME280;3103;49.492;8.474;2022-12-29T06:55:03;99778.72;;;11.70;73.10
6144;BME280;3103;49.492;8.474;2022-12-29T06:57:29;99758.97;;;11.49;73.59
6144;BME280;3103;49.492;8.474;2022-12-29T06:59:56;99751.75;;;11.55;74.39
6144;BME280;3103;49.492;8.474;2022-12-29T07:02:23;99751.44;;;11.46;74.13
6144;BME280;3103;49.492;8.474;2022-12-29T07:04:52;99751.66;;;11.40;74.72
6144;BME280;3103;49.492;8.474;2022-12-29T07:07:20;99757.47;;;11.74;72.37
6144;BME280;3103;49.492;8.474;2022-12-29T07:09:47;99756.66;;;11.73;72.07
6144;BME280;3103;49.492;8.474;2022-12-29T07:12:14;99759.09;;;11.75;72.06
6144;BME280;3103;49.492;8.474;2022-12-29T07:14:40;99769.38;;;11.83;70.80
6144;BME280;3103;49.492;8.474;2022-12-29T07:17:09;99758.88;;;11.86;70.38
6144;BME280;3103;49.492;8.474;2022-12-29T07:19:36;99765.34;;;11.85;70.61
6144;BME280;3103;49.492;8.474;2022-12-29T07:22:02;99750.44;;;11.68;70.84
6144;BME280;3103;49.492;8.474;2022-12-29T07:24:29;99764.25;;;11.81;70.23
6144;BME280;3103;49.492;8.474;2022-12-29T07:26:56;99766.44;;;11.84;69.90
6144;BME280;3103;49.492;8.474;2022-12-29T07:29:23;99769.31;;;11.78;69.98
6144;BME280;3103;49.492;8.474;2022-12-29T07:31:49;99776.13;;;11.85;69.49
6144;BME280;3103;49.492;8.474;2022-12-29T07:34:16;99774.50;;;11.84;68.99
6144;BME280;3103;49.492;8.474;2022-12-29T07:36:43;99757.75;;;11.77;69.40
6144;BME280;3103;49.492;8.474;2022-12-29T07:39:09;99771.78;;;11.79;69.28
6144;BME280;3103;49.492;8.474;2022-12-29T07:41:38;99773.16;;;11.92;68.78
6144;BME280;3103;49.492;8.474;2022-12-29T07:44:08;99788.78;;;11.90;69.22
6144;BME280;3103;49.492;8.474;2022-12-29T07:46:58;99782.59;;;11.89;68.82
6144;BME280;3103;49.492;8.474;2022-12-29T07:49:26;99775.59;;;11.88;69.06
6144;BME280;3103;49.492;8.474;2022-12-29T07:51:52;99784.47;;;11.89;69.06
6144;BME280;3103;49.492;8.474;2022-12-29T07:54:19;99790.13;;;11.87;68.77
6144;BME280;3103;49.492;8.474;2022-12-29T07:56:46;99791.75;;;11.94;69.01
6144;BME280;3103;49.492;8.474;2022-12-29T07:59:13;99797.16;;;11.99;68.29
6144;BME280;3103;49.492;8.474;2022-12-29T08:01:39;99786.94;;;12.01;68.18
6144;BME280;3103;49.492;8.474;2022-12-29T08:04:07;99783.16;;;11.97;68.59
6144;BME280;3103;49.492;8.474;2022-12-29T08:06:33;99797.97;;;11.99;68.91
6144;BME280;3103;49.492;8.474;2022-12-29T08:09:00;99797.72;;;12.01;68.45
6144;BME280;3103;49.492;8.474;2022-12-29T08:11:38;99807.41;;;12.02;67.95
6144;BME280;3103;49.492;8.474;2022-12-29T08:14:04;99810.91;;;12.02;67.99
6144;BME280;3103;49.492;8.474;2022-12-29T08:16:31;99817.59;;;11.95;68.63
6144;BME280;3103;49.492;8.474;2022-12-29T08:18:59;99819.25;;;12.06;68.19
6144;BME280;3103;49.492;8.474;2022-12-29T08:21:29;99817.63;;;12.05;67.88
6144;BME280;3103;49.492;8.474;2022-12-29T08:23:56;99826.50;;;12.00;68.42
6144;BME280;3103;49.492;8.474;2022-12-29T08:26:23;99831.09;;;12.05;68.12
6144;BME280;3103;49.492;8.474;2022-12-29T08:28:52;99823.56;;;12.07;68.08
6144;BME280;3103;49.492;8.474;2022-12-29T08:31:19;99838.13;;;12.11;67.79
6144;BME280;3103;49.492;8.474;2022-12-29T08:33:46;99841.34;;;12.08;68.37
6144;BME280;3103;49.492;8.474;2022-12-29T08:36:12;99841.38;;;12.13;69.11
6144;BME280;3103;49.492;8.474;2022-12-29T08:38:39;99838.16;;;12.16;68.77
6144;BME280;3103;49.492;8.474;2022-12-29T08:41:06;99836.47;;;12.05;69.26
6144;BME280;3103;49.492;8.474;2022-12-29T08:43:33;99837.88;;;12.12;69.31
6144;BME280;3103;49.492;8.474;2022-12-29T08:46:00;99834.34;;;12.07;69.63
6144;BME280;3103;49.492;8.474;2022-12-29T08:48:27;99839.50;;;12.18;68.59
6144;BME280;3103;49.492;8.474;2022-12-29T08:50:53;99839.50;;;12.18;69.06
6144;BME280;3103;49.492;8.474;2022-12-29T08:53:20;99846.50;;;12.19;68.43
6144;BME280;3103;49.492;8.474;2022-12-29T08:55:55;99837.34;;;12.15;68.86
6144;BME280;3103;49.492;8.474;2022-12-29T08:58:33;99842.44;;;12.12;68.90
6144;BME280;3103;49.492;8.474;2022-12-29T09:01:00;99852.16;;;12.23;68.04
6144;BME280;3103;49.492;8.474;2022-12-29T09:03:27;99851.06;;;12.19;68.30
6144;BME280;3103;49.492;8.474;2022-12-29T09:06:15;99837.56;;;12.09;68.75
6144;BME280;3103;49.492;8.474;2022-12-29T09:08:43;99847.88;;;12.27;68.04
6144;BME280;3103;49.492;8.474;2022-12-29T09:11:12;99852.75;;;12.30;68.05
6144;BME280;3103;49.492;8.474;2022-12-29T09:13:39;99853.28;;;12.27;68.41
6144;BME280;3103;49.492;8.474;2022-12-29T09:16:06;99848.69;;;12.28;67.91
6144;BME280;3103;49.492;8.474;2022-12-29T09:18:33;99854.34;;;12.26;67.91
6144;BME280;3103;49.492;8.474;2022-12-29T09:21:04;99854.63;;;12.35;68.46
6144;BME280;3103;49.492;8.474;2022-12-29T09:23:31;99855.19;;;12.42;68.07
6144;BME280;3103;49.492;8.474;2022-12-29T09:25:58;99861.97;;;12.55;67.33
6144;BME280;3103;49.492;8.474;2022-12-29T09:28:25;99863.06;;;12.69;68.01
6144;BME280;3103;49.492;8.474;2022-12-29T09:30:52;99862.81;;;12.75;67.62
6144;BME280;3103;49.492;8.474;2022-12-29T09:33:19;99874.41;;;12.76;67.98
6144;BME280;3103;49.492;8.474;2022-12-29T09:35:51;99878.44;;;12.73;67.68
6144;BME280;3103;49.492;8.474;2022-12-29T09:38:18;99874.13;;;12.72;68.33
6144;BME280;3103;49.492;8.474;2022-12-29T09:40:53;99887.59;;;12.67;68.85
6144;BME280;3103;49.492;8.474;2022-12-29T09:43:57;99876.53;;;12.64;69.73
6144;BME280;3103;49.492;8.474;2022-12-29T09:46:28;99891.66;;;12.70;69.59
6144;BME280;3103;49.492;8.474;2022-12-29T09:51:48;99897.81;;;12.60;70.12
6144;BME280;3103;49.492;8.474;2022-12-29T09:54:24;99898.13;;;12.69;69.87
6144;BME280;3103;49.492;8.474;2022-12-29T09:56:53;99909.16;;;12.67;70.49
6144;BME280;3103;49.492;8.474;2022-12-29T09:59:24;99895.13;;;12.60;70.42
6144;BME280;3103;49.492;8.474;2022-12-29T10:02:04;99900.78;;;12.59;70.79
6144;BME280;3103;49.492;8.474;2022-12-29T10:04:40;99893.22;;;12.56;70.73
6144;BME280;3103;49.492;8.474;2022-12-29T10:07:26;99893.19;;;12.51;70.86
6144;BME280;3103;49.492;8.474;2022-12-29T10:10:09;99895.88;;;12.45;71.28
6144;BME280;3103;49.492;8.474;2022-12-29T10:12:59;99901.81;;;12.42;71.91
6144;BME280;3103;49.492;8.474;2022-12-29T10:15:44;99906.41;;;12.47;71.95
6144;BME280;3103;49.492;8.474;2022-12-29T10:18:46;99909.09;;;12.42;71.97
6144;BME280;3103;49.492;8.474;2022-12-29T10:21:38;99909.63;;;12.44;72.50
6144;BME280;3103;49.492;8.474;2022-12-29T10:24:12;99912.31;;;12.44;72.39
6144;BME280;3103;49.492;8.474;2022-12-29T10:26:41;99912.06;;;12.51;72.47
6144;BME280;3103;49.492;8.474;2022-12-29T10:29:43;99908.56;;;12.50;72.03
6144;BME280;3103;49.492;8.474;2022-12-29T10:32:34;99896.97;;;12.49;72.25
6144;BME280;3103;49.492;8.474;2022-12-29T10:35:16;99899.44;;;12.56;72.05
6144;BME280;3103;49.492;8.474;2022-12-29T10:38:10;99909.94;;;12.58;71.79
6144;BME280;3103;49.492;8.474;2022-12-29T10:40:43;99905.63;;;12.62;71.30
6144;BME280;3103;49.492;8.474;2022-12-29T10:45:57;99882.22;;;12.67;70.87
6144;BME280;3103;49.492;8.474;2022-12-29T10:48:30;99900.28;;;12.67;70.38
6144;BME280;3103;49.492;8.474;2022-12-29T10:50:59;99893.81;;;12.68;70.41
6144;BME280;3103;49.492;8.474;2022-12-29T10:53:46;99901.88;;;12.68;70.12
6144;BME280;3103;49.492;8.474;2022-12-29T10:56:31;99901.59;;;12.64;70.20
6144;BME280;3103;49.492;8.474;2022-12-29T11:02:12;99901.34;;;12.71;69.48
6144;BME280;3103;49.492;8.474;2022-12-29T11:07:35;99901.63;;;12.79;71.60
6144;BME280;3103;49.492;8.474;2022-12-29T11:10:36;99911.31;;;12.75;71.99
6144;BME280;3103;49.492;8.474;2022-12-29T11:13:24;99907.59;;;12.82;71.65
6144;BME280;3103;49.492;8.474;2022-12-29T11:15:51;99905.44;;;12.99;71.00
6144;BME280;3103;49.492;8.474;2022-12-29T11:20:55;99917.06;;;13.15;69.84
6144;BME280;3103;49.492;8.474;2022-12-29T11:23:26;99900.09;;;13.19;69.53
6144;BME280;3103;49.492;8.474;2022-12-29T11:26:14;99917.63;;;13.32;69.58
6144;BME280;3103;49.492;8.474;2022-12-29T11:28:45;99913.81;;;13.13;68.25
6144;BME280;3103;49.492;8.474;2022-12-29T11:31:17;99910.31;;;13.12;67.92
6144;BME280;3103;49.492;8.474;2022-12-29T11:33:44;99913.81;;;13.18;67.80
6144;BME280;3103;49.492;8.474;2022-12-29T11:36:17;99908.44;;;13.23;66.59
6144;BME280;3103;49.492;8.474;2022-12-29T11:38:48;99924.59;;;13.18;65.21
6144;BME280;3103;49.492;8.474;2022-12-29T11:41:23;99920.81;;;13.08;64.64
6144;BME280;3103;49.492;8.474;2022-12-29T11:43:51;99921.91;;;13.13;64.77
6144;BME280;3103;49.492;8.474;2022-12-29T11:46:25;99911.41;;;13.11;64.43
6144;BME280;3103;49.492;8.474;2022-12-29T11:48:56;99916.25;;;13.14;64.59
6144;BME280;3103;49.492;8.474;2022-12-29T11:51:39;99916.78;;;13.11;64.98
6144;BME280;3103;49.492;8.474;2022-12-29T11:54:20;99923.78;;;13.17;64.55
6144;BME280;3103;49.492;8.474;2022-12-29T11:56:48;99916.00;;;13.21;64.85
6144;BME280;3103;49.492;8.474;2022-12-29T11:59:51;99914.09;;;13.21;64.98
6144;BME280;3103;49.492;8.474;2022-12-29T12:02:41;99918.16;;;13.19;64.57
6144;BME280;3103;49.492;8.474;2022-12-29T12:05:14;99911.94;;;13.13;64.70
6144;BME280;3103;49.492;8.474;2022-12-29T12:07:46;99909.47;;;13.06;64.81
6144;BME280;3103;49.492;8.474;2022-12-29T12:10:20;99908.16;;;13.09;64.23
6144;BME280;3103;49.492;8.474;2022-12-29T12:12:58;99919.75;;;13.10;63.64
6144;BME280;3103;49.492;8.474;2022-12-29T12:15:34;99913.25;;;13.05;63.40
6144;BME280;3103;49.492;8.474;2022-12-29T12:18:28;99904.91;;;12.97;63.88
6144;BME280;3103;49.492;8.474;2022-12-29T12:21:21;99920.50;;;12.95;64.26
6144;BME280;3103;49.492;8.474;2022-12-29T12:26:34;99924.56;;;12.82;65.10
6144;BME280;3103;49.492;8.474;2022-12-29T12:29:16;99920.78;;;12.83;65.10
6144;BME280;3103;49.492;8.474;2022-12-29T12:31:51;99920.72;;;12.63;65.74
6144;BME280;3103;49.492;8.474;2022-12-29T12:34:37;99928.84;;;12.68;66.13
6144;BME280;3103;49.492;8.474;2022-12-29T12:37:31;99933.69;;;12.71;66.31
6144;BME280;3103;49.492;8.474;2022-12-29T12:40:34;99925.31;;;12.57;67.09
6144;BME280;3103;49.492;8.474;2022-12-29T12:43:05;99929.34;;;12.65;67.40
6144;BME280;3103;49.492;8.474;2022-12-29T12:46:02;99923.63;;;12.46;68.55
6144;BME280;3103;49.492;8.474;2022-12-29T12:49:11;99921.75;;;12.52;69.16
6144;BME280;3103;49.492;8.474;2022-12-29T12:55:00;99912.03;;;12.40;71.06
6144;BME280;3103;49.492;8.474;2022-12-29T12:58:09;99912.31;;;12.44;71.09
6144;BME280;3103;49.492;8.474;2022-12-29T13:06:47;99895.69;;;12.67;70.49
6144;BME280;3103;49.492;8.474;2022-12-29T13:17:45;99894.63;;;12.68;67.04
6144;BME280;3103;49.492;8.474;2022-12-29T13:20:34;99898.09;;;12.64;66.32
6144;BME280;3103;49.492;8.474;2022-12-29T13:23:19;99899.38;;;12.46;66.21
6144;BME280;3103;49.492;8.474;2022-12-29T13:25:51;99907.47;;;12.51;66.07
6144;BME280;3103;49.492;8.474;2022-12-29T13:28:29;99901.22;;;12.35;66.59
6144;BME280;3103;49.492;8.474;2022-12-29T13:31:22;99909.03;;;12.37;66.67
6144;BME280;3103;49.492;8.474;2022-12-29T13:36:26;99907.41;;;12.31;67.17
6144;BME280;3103;49.492;8.474;2022-12-29T13:39:02;99900.91;;;12.22;67.17
6144;BME280;3103;49.492;8.474;2022-12-29T13:41:38;99896.63;;;12.26;67.32
6144;BME280;3103;49.492;8.474;2022-12-29T13:44:11;99891.47;;;12.19;67.23
6144;BME280;3103;49.492;8.474;2022-12-29T13:46:44;99891.47;;;12.24;68.03
6144;BME280;3103;49.492;8.474;2022-12-29T13:49:15;99913.03;;;12.24;67.61
6144;BME280;3103;49.492;8.474;2022-12-29T13:51:58;99899.22;;;12.10;68.78
6144;BME280;3103;49.492;8.474;2022-12-29T13:57:10;99915.03;;;11.92;69.74
6144;BME280;3103;49.492;8.474;2022-12-29T13:59:59;99910.69;;;11.85;70.22
6144;BME280;3103;49.492;8.474;2022-12-29T14:07:47;99920.44;;;11.59;72.01
6144;BME280;3103;49.492;8.474;2022-12-29T14:10:28;99923.88;;;11.50;72.42
6144;BME280;3103;49.492;8.474;2022-12-29T14:13:11;99927.09;;;11.52;73.18
6144;BME280;3103;49.492;8.474;2022-12-29T14:15:41;99929.00;;;11.51;72.69
6144;BME280;3103;49.492;8.474;2022-12-29T14:18:15;99931.09;;;11.44;74.53
6144;BME280;3103;49.492;8.474;2022-12-29T14:21:01;99941.50;;;11.36;73.54
6144;BME280;3103;49.492;8.474;2022-12-29T14:28:38;99934.81;;;11.38;73.58
6144;BME280;3103;49.492;8.474;2022-12-29T14:36:37;99939.84;;;11.29;73.38
6144;BME280;3103;49.492;8.474;2022-12-29T14:44:53;99923.28;;;11.43;74.00
6144;BME280;3103;49.492;8.474;2022-12-29T14:47:43;99941.22;;;11.32;73.03
6144;BME280;3103;49.492;8.474;2022-12-29T14:52:52;99950.66;;;11.35;73.40
6144;BME280;3103;49.492;8.474;2022-12-29T14:55:36;99937.16;;;11.29;73.73
6144;BME280;3103;49.492;8.474;2022-12-29T14:58:10;99941.47;;;11.30;73.86
6144;BME280;3103;49.492;8.474;2022-12-29T15:00:40;99937.69;;;11.26;73.71
6144;BME280;3103;49.492;8.474;2022-12-29T15:03:16;99951.34;;;11.25;74.52
6144;BME280;3103;49.492;8.474;2022-12-29T15:05:46;99942.31;;;11.36;74.27
6144;BME280;3103;49.492;8.474;2022-12-29T15:08:21;99936.47;;;11.44;72.89
6144;BME280;3103;49.492;8.474;2022-12-29T15:11:00;99937.88;;;11.52;73.25
6144;BME280;3103;49.492;8.474;2022-12-29T15:13:36;99938.31;;;11.39;73.47
6144;BME280;3103;49.492;8.474;2022-12-29T15:16:04;99928.66;;;11.43;73.67